Time,TemperatureF,DewpointF,PressureIn,WindDirection,WindDirectionDegrees,WindSpeedMPH,WindSpeedGustMPH,Humidity,HourlyPrecipIn,Conditions,Clouds,dailyrainin,SoftwareType,DateUTC
2013-05-21 01:27:00,60.4,34.7,-100.00,North,-999,0.0,3.1,38,0.00,,,-99.99,FreeWX-Wi 1.01,2013-05-21 08:27:00,
2013-05-21 01:32:00,60.4,34.7,-100.00,North,-999,0.0,0.0,38,0.00,,,-99.99,FreeWX-Wi 1.01,2013-05-21 08:32:00,
2013-05-21 01:42:00,52.0,27.1,-100.00,North,-999,0.0,0.0,38,0.00,,,-99.99,FreeWX-Wi 1.01,2013-05-21 08:42:00,
2013-05-21 01:47:00,52.0,27.1,-100.00,North,-999,0.0,0.0,38,0.00,,,-99.99,FreeWX-Wi 1.01,2013-05-21 08:47:00,
2013-05-21 01:52:00,52.0,27.1,-100.00,North,-999,0.0,0.0,38,0.00,,,-99.99,FreeWX-Wi 1.01,2013-05-21 08:52:00,
2013-05-21 01:57:00,52.0,27.1,-100.00,North,-999,0.0,0.0,38,0.00,,,-99.99,FreeWX-Wi 1.01,2013-05-21 08:57:00,
2013-05-21 02:17:00,51.8,26.4,-100.00,North,-999,0.0,3.6,37,0.00,,,-99.99,FreeWX-Wi 1.01,2013-05-21 09:17:00,
2013-05-21 02:22:00,51.6,26.8,-100.00,North,-999,0.0,0.0,38,0.00,,,-99.99,FreeWX-Wi 1.01,2013-05-21 09:22:00,
2013-05-21 02:27:00,51.4,26.6,-100.00,North,-999,0.0,0.0,38,0.00,,,-99.99,FreeWX-Wi 1.01,2013-05-21 09:27:00,
2013-05-21 02:32:00,51.4,26.6,-100.00,North,-999,0.0,0.0,38,0.00,,,-99.99,FreeWX-Wi 1.01,2013-05-21 09:32:00,
2013-05-21 02:37:00,51.3,26.6,-100.00,North,-999,0.0,3.1,38,0.00,,,-99.99,FreeWX-Wi 1.01,2013-05-21 09:37:00,
2013-05-21 02:42:00,51.3,26.6,-100.00,North,-999,0.0,0.0,38,0.00,,,-99.99,FreeWX-Wi 1.01,2013-05-21 09:42:00,
2013-05-21 02:47:00,51.3,26.6,-100.00,North,-999,0.0,0.0,38,0.00,,,-99.99,FreeWX-Wi 1.01,2013-05-21 09:47:00,
2013-05-21 02:52:00,50.9,26.2,-100.00,North,-999,0.0,0.0,38,0.00,,,-99.99,FreeWX-Wi 1.01,2013-05-21 09:52:00,
2013-05-21 03:02:00,50.2,26.2,-100.00,North,-999,0.0,4.5,39,0.00,,,-99.99,FreeWX-Wi 1.01,2013-05-21 10:02:00,
2013-05-21 03:07:00,49.6,27.0,-100.00,North,-999,0.0,2.7,41,0.00,,,-99.99,FreeWX-Wi 1.01,2013-05-21 10:07:00,
2013-05-21 03:12:00,49.3,28.2,-100.00,North,-999,0.0,3.6,44,0.00,,,-99.99,FreeWX-Wi 1.01,2013-05-21 10:12:00,
2013-05-21 03:17:00,48.9,29.1,-100.00,North,-999,0.0,0.0,46,0.00,,,-99.99,FreeWX-Wi 1.01,2013-05-21 10:17:00,
2013-05-21 03:22:00,48.6,28.2,-100.00,North,-999,0.0,0.0,45,0.00,,,-99.99,FreeWX-Wi 1.01,2013-05-21 10:22:00,
2013-05-21 03:27:00,48.6,28.8,-100.00,North,-999,0.0,0.0,46,0.00,,,-99.99,FreeWX-Wi 1.01,2013-05-21 10:27:00,
2013-05-21 03:32:00,48.4,28.6,-100.00,North,-999,0.0,0.0,46,0.00,,,-99.99,FreeWX-Wi 1.01,2013-05-21 10:32:00,
2013-05-21 03:37:00,48.4,28.6,-100.00,North,-999,0.0,0.0,46,0.00,,,-99.99,FreeWX-Wi 1.01,2013-05-21 10:37:00,
2013-05-21 03:42:00,48.6,29.3,-100.00,North,-999,0.0,0.0,47,0.00,,,-99.99,FreeWX-Wi 1.01,2013-05-21 10:42:00,
2013-05-21 03:47:00,48.4,29.1,-100.00,North,-999,0.0,0.0,47,0.00,,,-99.99,FreeWX-Wi 1.01,2013-05-21 10:47:00,
2013-05-21 03:52:00,48.4,29.1,-100.00,North,-999,0.0,0.0,47,0.00,,,-99.99,FreeWX-Wi 1.01,2013-05-21 10:52:00,
2013-05-21 03:57:00,48.2,29.5,-100.00,North,-999,0.0,0.0,48,0.00,,,-99.99,FreeWX-Wi 1.01,2013-05-21 10:57:00,
2013-05-21 04:02:00,48.4,29.7,-100.00,North,-999,0.0,0.0,48,0.00,,,-99.99,FreeWX-Wi 1.01,2013-05-21 11:02:00,
2013-05-21 04:07:00,48.4,29.7,-100.00,North,-999,0.0,0.0,48,0.00,,,-99.99,FreeWX-Wi 1.01,2013-05-21 11:07:00,
2013-05-21 04:12:00,48.4,29.7,-100.00,North,-999,0.0,0.0,48,0.00,,,-99.99,FreeWX-Wi 1.01,2013-05-21 11:12:00,
2013-05-21 04:17:00,48.4,29.7,-100.00,North,-999,0.0,0.0,48,0.00,,,-99.99,FreeWX-Wi 1.01,2013-05-21 11:17:00,
2013-05-21 04:22:00,48.2,29.5,-100.00,North,-999,0.0,0.0,48,0.00,,,-99.99,FreeWX-Wi 1.01,2013-05-21 11:22:00,
2013-05-21 04:27:00,48.2,29.5,-100.00,North,-999,0.0,0.0,48,0.04,,,-99.99,FreeWX-Wi 1.01,2013-05-21 11:27:00,
2013-05-21 04:32:00,48.2,29.5,-100.00,North,-999,0.0,0.0,48,0.04,,,-99.99,FreeWX-Wi 1.01,2013-05-21 11:32:00,
2013-05-21 04:37:00,48.2,30.0,-100.00,North,-999,0.0,0.0,49,0.04,,,-99.99,FreeWX-Wi 1.01,2013-05-21 11:37:00,
2013-05-21 04:42:00,48.2,30.0,-100.00,North,-999,0.0,0.0,49,0.04,,,-99.99,FreeWX-Wi 1.01,2013-05-21 11:42:00,
2013-05-21 04:47:00,48.2,30.0,-100.00,North,-999,0.0,0.0,49,0.04,,,-99.99,FreeWX-Wi 1.01,2013-05-21 11:47:00,
2013-05-21 04:52:00,47.7,30.0,-100.00,North,-999,0.0,0.0,50,0.04,,,-99.99,FreeWX-Wi 1.01,2013-05-21 11:52:00,
2013-05-21 04:57:00,47.3,29.7,-100.00,North,-999,0.0,0.0,50,0.08,,,-99.99,FreeWX-Wi 1.01,2013-05-21 11:57:00,
2013-05-21 05:02:00,46.9,29.8,-100.00,North,-999,0.0,0.0,51,0.08,,,-99.99,FreeWX-Wi 1.01,2013-05-21 12:02:00,
2013-05-21 05:07:00,46.8,30.6,-100.00,North,-999,0.0,0.0,53,0.08,,,-99.99,FreeWX-Wi 1.01,2013-05-21 12:07:00,
2013-05-21 05:12:00,47.1,31.3,-100.00,North,-999,0.0,0.0,54,0.08,,,-99.99,FreeWX-Wi 1.01,2013-05-21 12:12:00,
2013-05-21 05:17:00,47.1,31.3,-100.00,North,-999,0.0,0.0,54,0.12,,,-99.99,FreeWX-Wi 1.01,2013-05-21 12:17:00,
2013-05-21 05:22:00,47.1,31.3,-100.00,North,-999,0.0,0.0,54,0.12,,,-99.99,FreeWX-Wi 1.01,2013-05-21 12:22:00,
2013-05-21 05:27:00,46.9,31.1,-100.00,North,-999,0.0,0.0,54,0.08,,,-99.99,FreeWX-Wi 1.01,2013-05-21 12:27:00,
2013-05-21 05:32:00,46.9,31.6,-100.00,North,-999,0.0,0.0,55,0.08,,,-99.99,FreeWX-Wi 1.01,2013-05-21 12:32:00,
2013-05-21 05:37:00,46.9,31.6,-100.00,North,-999,0.0,0.0,55,0.08,,,-99.99,FreeWX-Wi 1.01,2013-05-21 12:37:00,
2013-05-21 05:43:00,46.9,32.0,-100.00,North,-999,0.0,0.0,56,0.08,,,-99.99,FreeWX-Wi 1.01,2013-05-21 12:43:00,
2013-05-21 05:48:00,46.9,32.9,-100.00,North,-999,0.0,0.0,58,0.08,,,-99.99,FreeWX-Wi 1.01,2013-05-21 12:48:00,
2013-05-21 05:53:00,46.8,32.7,-100.00,North,-999,0.0,0.0,58,0.12,,,-99.99,FreeWX-Wi 1.01,2013-05-21 12:53:00,
2013-05-21 05:58:00,46.8,33.3,-100.00,North,-999,0.0,0.0,59,0.08,,,-99.99,FreeWX-Wi 1.01,2013-05-21 12:58:00,
2013-05-21 06:03:00,46.8,33.3,-100.00,North,-999,0.0,0.0,59,0.08,,,-99.99,FreeWX-Wi 1.01,2013-05-21 13:03:00,
2013-05-21 06:08:00,46.8,34.0,-100.00,North,-999,0.0,0.0,61,0.08,,,-99.99,FreeWX-Wi 1.01,2013-05-21 13:08:00,
2013-05-21 06:13:00,46.4,33.3,-100.00,North,-999,0.0,0.0,60,0.12,,,-99.99,FreeWX-Wi 1.01,2013-05-21 13:13:00,
2013-05-21 06:18:00,46.4,33.6,-100.00,North,-999,0.0,0.0,61,0.08,,,-99.99,FreeWX-Wi 1.01,2013-05-21 13:18:00,
2013-05-21 06:23:00,46.4,34.2,-100.00,North,-999,0.0,0.0,62,0.08,,,-99.99,FreeWX-Wi 1.01,2013-05-21 13:23:00,
2013-05-21 06:28:00,46.6,34.3,-100.00,North,-999,0.0,0.0,62,0.08,,,-99.99,FreeWX-Wi 1.01,2013-05-21 13:28:00,
2013-05-21 06:33:00,46.6,34.3,-100.00,North,-999,0.0,0.0,62,0.08,,,-99.99,FreeWX-Wi 1.01,2013-05-21 13:33:00,
2013-05-21 06:38:00,46.6,34.3,-100.00,North,-999,0.0,0.0,62,0.08,,,-99.99,FreeWX-Wi 1.01,2013-05-21 13:38:00,
2013-05-21 06:43:00,46.6,34.3,-100.00,North,-999,0.0,0.0,62,0.08,,,-99.99,FreeWX-Wi 1.01,2013-05-21 13:43:00,
2013-05-21 06:48:00,46.8,34.9,-100.00,North,-999,0.0,0.0,63,0.12,,,-99.99,FreeWX-Wi 1.01,2013-05-21 13:48:00,
2013-05-21 06:53:00,46.8,34.9,-100.00,North,-999,0.0,0.0,63,0.08,,,-99.99,FreeWX-Wi 1.01,2013-05-21 13:53:00,
2013-05-21 06:58:00,46.8,35.2,-100.00,North,-999,0.0,0.0,64,0.08,,,-99.99,FreeWX-Wi 1.01,2013-05-21 13:58:00,
2013-05-21 07:03:00,46.9,35.4,-100.00,North,-999,0.0,0.0,64,0.08,,,-99.99,FreeWX-Wi 1.01,2013-05-21 14:03:00,
2013-05-21 07:08:00,46.9,35.4,-100.00,North,-999,0.0,0.0,64,0.08,,,-99.99,FreeWX-Wi 1.01,2013-05-21 14:08:00,
2013-05-21 07:13:00,46.9,35.4,-100.00,North,-999,0.0,0.0,64,0.04,,,-99.99,FreeWX-Wi 1.01,2013-05-21 14:13:00,
2013-05-21 07:18:00,47.1,35.6,-100.00,North,-999,0.0,0.0,64,0.04,,,-99.99,FreeWX-Wi 1.01,2013-05-21 14:18:00,
2013-05-21 07:23:00,47.1,36.0,-100.00,North,-999,0.0,0.0,65,0.04,,,-99.99,FreeWX-Wi 1.01,2013-05-21 14:23:00,
2013-05-21 07:28:00,46.9,35.4,-100.00,North,-999,0.0,0.0,64,0.04,,,-99.99,FreeWX-Wi 1.01,2013-05-21 14:28:00,
2013-05-21 07:33:00,46.8,35.2,-100.00,North,-999,0.0,0.0,64,0.04,,,-99.99,FreeWX-Wi 1.01,2013-05-21 14:33:00,
2013-05-21 07:38:00,46.9,35.8,-100.00,North,-999,0.0,0.0,65,0.04,,,-99.99,FreeWX-Wi 1.01,2013-05-21 14:38:00,
2013-05-21 07:43:00,47.1,36.3,-100.00,North,-999,0.0,0.0,66,0.08,,,-99.99,FreeWX-Wi 1.01,2013-05-21 14:43:00,
2013-05-21 07:48:00,47.5,36.7,-100.00,North,-999,0.0,0.0,66,0.04,,,-99.99,FreeWX-Wi 1.01,2013-05-21 14:48:00,
2013-05-21 07:53:00,47.5,36.3,-100.00,North,-999,0.0,0.0,65,0.04,,,-99.99,FreeWX-Wi 1.01,2013-05-21 14:53:00,
2013-05-21 07:58:00,47.7,36.5,-100.00,North,-999,0.0,0.0,65,0.04,,,-99.99,FreeWX-Wi 1.01,2013-05-21 14:58:00,
2013-05-21 08:03:00,47.8,36.7,-100.00,North,-999,0.0,0.0,65,0.04,,,-99.99,FreeWX-Wi 1.01,2013-05-21 15:03:00,
2013-05-21 08:08:00,47.5,36.0,-100.00,North,-999,0.0,0.0,64,0.04,,,-99.99,FreeWX-Wi 1.01,2013-05-21 15:08:00,
2013-05-21 08:13:00,47.3,35.8,-100.00,North,-999,0.0,0.0,64,0.04,,,-99.99,FreeWX-Wi 1.01,2013-05-21 15:13:00,
2013-05-21 08:18:00,47.5,36.3,-100.00,North,-999,0.0,0.0,65,0.04,,,-99.99,FreeWX-Wi 1.01,2013-05-21 15:18:00,
2013-05-21 08:23:00,47.3,35.8,-100.00,North,-999,0.0,0.0,64,0.04,,,-99.99,FreeWX-Wi 1.01,2013-05-21 15:23:00,
2013-05-21 08:28:00,47.1,35.6,-100.00,North,-999,0.0,0.0,64,0.04,,,-99.99,FreeWX-Wi 1.01,2013-05-21 15:28:00,
2013-05-21 08:33:00,47.5,36.7,-100.00,North,-999,0.0,0.0,66,0.04,,,-99.99,FreeWX-Wi 1.01,2013-05-21 15:33:00,
2013-05-21 08:38:00,47.7,36.9,-100.00,North,-999,0.0,0.0,66,0.04,,,-99.99,FreeWX-Wi 1.01,2013-05-21 15:38:00,
2013-05-21 08:43:00,47.7,36.5,-100.00,North,-999,0.0,2.2,65,0.00,,,-99.99,FreeWX-Wi 1.01,2013-05-21 15:43:00,
2013-05-21 08:48:00,47.7,36.1,-100.00,North,-999,0.0,0.0,64,0.00,,,-99.99,FreeWX-Wi 1.01,2013-05-21 15:48:00,
2013-05-21 08:53:00,48.0,37.2,-100.00,North,-999,0.0,0.0,66,0.00,,,-99.99,FreeWX-Wi 1.01,2013-05-21 15:53:00,
2013-05-21 08:58:00,47.7,36.1,-100.00,North,-999,0.0,0.0,64,0.00,,,-99.99,FreeWX-Wi 1.01,2013-05-21 15:58:00,
2013-05-21 09:03:00,47.8,36.7,-100.00,North,-999,0.0,0.0,65,0.00,,,-99.99,FreeWX-Wi 1.01,2013-05-21 16:03:00,
2013-05-21 09:08:00,47.8,37.0,-100.00,North,-999,0.0,0.0,66,0.00,,,-99.99,FreeWX-Wi 1.01,2013-05-21 16:08:00,
2013-05-21 09:13:00,47.7,36.1,-100.00,North,-999,0.0,0.0,64,0.00,,,-99.99,FreeWX-Wi 1.01,2013-05-21 16:13:00,
2013-05-21 09:18:00,47.7,36.5,-100.00,North,-999,0.0,0.0,65,0.00,,,-99.99,FreeWX-Wi 1.01,2013-05-21 16:18:00,
2013-05-21 09:23:00,48.4,37.6,-100.00,North,-999,0.0,0.0,66,0.00,,,-99.99,FreeWX-Wi 1.01,2013-05-21 16:23:00,
2013-05-21 09:28:00,48.7,38.3,-100.00,North,-999,0.0,0.0,67,0.00,,,-99.99,FreeWX-Wi 1.01,2013-05-21 16:28:00,
2013-05-21 09:33:00,48.9,38.5,-100.00,North,-999,0.0,0.0,67,0.00,,,-99.99,FreeWX-Wi 1.01,2013-05-21 16:33:00,
2013-05-21 09:38:00,48.9,38.5,-100.00,North,-999,0.0,0.0,67,0.00,,,-99.99,FreeWX-Wi 1.01,2013-05-21 16:38:00,
2013-05-21 09:43:00,48.9,38.5,-100.00,North,-999,0.0,0.0,67,0.00,,,-99.99,FreeWX-Wi 1.01,2013-05-21 16:43:00,
2013-05-21 09:48:00,48.9,37.8,-100.00,North,-999,0.0,0.0,65,0.00,,,-99.99,FreeWX-Wi 1.01,2013-05-21 16:48:00,
2013-05-21 09:53:00,49.1,37.8,-100.00,North,-999,0.0,0.0,65,0.00,,,-99.99,FreeWX-Wi 1.01,2013-05-21 16:53:00,
2013-05-21 09:58:00,49.1,37.8,-100.00,North,-999,0.0,0.0,65,0.00,,,-99.99,FreeWX-Wi 1.01,2013-05-21 16:58:00,
2013-05-21 10:03:00,49.1,37.4,-100.00,North,-999,0.0,0.0,64,0.00,,,-99.99,FreeWX-Wi 1.01,2013-05-21 17:03:00,
2013-05-21 10:08:00,49.1,37.4,-100.00,North,-999,0.0,0.0,64,0.00,,,-99.99,FreeWX-Wi 1.01,2013-05-21 17:08:00,
2013-05-21 10:13:00,48.9,36.9,-100.00,North,-999,0.0,0.0,63,0.00,,,-99.99,FreeWX-Wi 1.01,2013-05-21 17:13:00,
2013-05-21 10:18:00,48.7,36.7,-100.00,North,-999,0.0,0.0,63,0.00,,,-99.99,FreeWX-Wi 1.01,2013-05-21 17:18:00,
2013-05-21 10:23:00,48.7,36.7,-100.00,North,-999,0.0,0.0,63,0.00,,,-99.99,FreeWX-Wi 1.01,2013-05-21 17:23:00,
2013-05-21 10:28:00,48.7,36.7,-100.00,North,-999,0.0,0.0,63,0.00,,,-99.99,FreeWX-Wi 1.01,2013-05-21 17:28:00,
2013-05-21 10:33:00,48.9,37.2,-100.00,North,-999,0.0,0.0,64,0.00,,,-99.99,FreeWX-Wi 1.01,2013-05-21 17:33:00,
2013-05-21 10:38:00,49.6,38.3,-100.00,North,-999,0.0,0.0,65,0.00,,,-99.99,FreeWX-Wi 1.01,2013-05-21 17:38:00,
2013-05-21 10:43:00,50.2,38.8,-100.00,North,-999,0.0,0.0,65,0.00,,,-99.99,FreeWX-Wi 1.01,2013-05-21 17:43:00,
2013-05-21 10:48:00,50.4,38.7,-100.00,North,-999,0.0,0.0,64,0.00,,,-99.99,FreeWX-Wi 1.01,2013-05-21 17:48:00,
2013-05-21 10:53:00,50.5,38.5,-100.00,North,-999,0.0,0.0,63,0.00,,,-99.99,FreeWX-Wi 1.01,2013-05-21 17:53:00,
2013-05-21 10:58:00,50.9,38.8,-100.00,North,-999,0.0,0.0,63,0.00,,,-99.99,FreeWX-Wi 1.01,2013-05-21 17:58:00,
2013-05-21 11:03:00,51.3,38.7,-100.00,North,-999,0.0,0.0,62,0.00,,,-99.99,FreeWX-Wi 1.01,2013-05-21 18:03:00,
2013-05-21 11:08:00,51.6,38.1,-100.00,North,-999,0.0,0.0,60,0.00,,,-99.99,FreeWX-Wi 1.01,2013-05-21 18:08:00,
2013-05-21 11:13:00,51.4,36.7,-100.00,North,-999,0.0,0.0,57,0.00,,,-99.99,FreeWX-Wi 1.01,2013-05-21 18:13:00,
2013-05-21 11:18:00,51.6,35.6,-100.00,North,-999,0.0,0.0,54,0.00,,,-99.99,FreeWX-Wi 1.01,2013-05-21 18:18:00,
2013-05-21 11:23:00,51.4,34.0,-100.00,North,-999,0.0,0.0,51,0.00,,,-99.99,FreeWX-Wi 1.01,2013-05-21 18:23:00,
2013-05-21 11:28:00,51.4,33.4,-100.00,North,-999,0.0,0.0,50,0.00,,,-99.99,FreeWX-Wi 1.01,2013-05-21 18:28:00,
2013-05-21 11:34:00,51.6,34.2,-100.00,North,-999,0.0,0.0,51,0.00,,,-99.99,FreeWX-Wi 1.01,2013-05-21 18:34:00,
2013-05-21 11:39:00,51.6,34.2,-100.00,North,-999,0.0,0.0,51,0.00,,,-99.99,FreeWX-Wi 1.01,2013-05-21 18:39:00,
2013-05-21 11:44:00,52.0,34.3,-100.00,North,-999,0.0,0.0,51,0.00,,,-99.99,FreeWX-Wi 1.01,2013-05-21 18:44:00,
2013-05-21 11:49:00,53.1,36.0,-100.00,North,-999,0.0,0.0,52,0.00,,,-99.99,FreeWX-Wi 1.01,2013-05-21 18:49:00,
2013-05-21 11:54:00,54.5,37.2,-100.00,North,-999,0.0,0.0,52,0.00,,,-99.99,FreeWX-Wi 1.01,2013-05-21 18:54:00,
2013-05-21 11:59:00,55.9,36.5,-100.00,North,-999,0.0,0.0,48,0.00,,,-99.99,FreeWX-Wi 1.01,2013-05-21 18:59:00,
2013-05-21 12:04:00,57.2,35.4,-100.00,North,-999,0.0,0.0,44,0.00,,,-99.99,FreeWX-Wi 1.01,2013-05-21 19:04:00,
2013-05-21 12:09:00,56.7,32.5,-100.00,North,-999,0.0,0.0,40,0.00,,,-99.99,FreeWX-Wi 1.01,2013-05-21 19:09:00,
2013-05-21 12:14:00,55.4,31.5,-100.00,North,-999,0.0,0.0,40,0.00,,,-99.99,FreeWX-Wi 1.01,2013-05-21 19:14:00,
2013-05-21 12:19:00,54.5,31.3,-100.00,North,-999,0.0,0.0,41,0.00,,,-99.99,FreeWX-Wi 1.01,2013-05-21 19:19:00,
2013-05-21 12:24:00,54.3,31.1,-100.00,North,-999,0.0,0.0,41,0.00,,,-99.99,FreeWX-Wi 1.01,2013-05-21 19:24:00,
2013-05-21 12:29:00,54.1,30.9,-100.00,North,-999,0.0,0.0,41,0.00,,,-99.99,FreeWX-Wi 1.01,2013-05-21 19:29:00,
2013-05-21 12:34:00,53.2,28.2,-100.00,North,-999,0.0,0.0,38,0.00,,,-99.99,FreeWX-Wi 1.01,2013-05-21 19:34:00,
2013-05-21 12:39:00,54.9,29.7,-100.00,North,-999,0.0,0.0,38,0.00,,,-99.99,FreeWX-Wi 1.01,2013-05-21 19:39:00,
2013-05-21 12:44:00,56.5,31.1,-100.00,North,-999,0.0,0.0,38,0.00,,,-99.99,FreeWX-Wi 1.01,2013-05-21 19:44:00,
2013-05-21 12:49:00,58.8,32.5,-100.00,North,-999,0.0,0.0,37,0.00,,,-99.99,FreeWX-Wi 1.01,2013-05-21 19:49:00,
2013-05-21 12:54:00,59.7,32.0,-100.00,North,-999,0.0,2.2,35,0.00,,,-99.99,FreeWX-Wi 1.01,2013-05-21 19:54:00,
2013-05-21 12:59:00,60.1,32.4,-100.00,North,-999,0.0,3.1,35,0.00,,,-99.99,FreeWX-Wi 1.01,2013-05-21 19:59:00,
2013-05-21 13:04:00,60.1,32.4,-100.00,North,-999,0.0,0.0,35,0.00,,,-99.99,FreeWX-Wi 1.01,2013-05-21 20:04:00,
2013-05-21 13:10:00,59.9,32.2,-100.00,North,-999,0.0,4.0,35,0.00,,,-99.99,FreeWX-Wi 1.01,2013-05-21 20:10:00,
2013-05-21 13:15:00,59.2,31.5,-100.00,North,-999,0.0,3.1,35,0.00,,,-99.99,FreeWX-Wi 1.01,2013-05-21 20:15:00,
2013-05-21 13:20:00,57.6,30.2,-100.00,North,-999,0.0,3.1,35,0.00,,,-99.99,FreeWX-Wi 1.01,2013-05-21 20:20:00,
2013-05-21 13:25:00,56.3,29.7,-100.00,North,-999,0.0,3.6,36,0.00,,,-99.99,FreeWX-Wi 1.01,2013-05-21 20:25:00,
2013-05-21 13:30:00,56.7,30.0,-100.00,North,-999,0.0,2.7,36,0.00,,,-99.99,FreeWX-Wi 1.01,2013-05-21 20:30:00,
2013-05-21 13:35:00,58.6,31.1,-100.00,North,-999,0.0,3.1,35,0.00,,,-99.99,FreeWX-Wi 1.01,2013-05-21 20:35:00,
2013-05-21 13:40:00,61.0,32.4,-100.00,North,-999,0.0,0.0,34,0.00,,,-99.99,FreeWX-Wi 1.01,2013-05-21 20:40:00,
2013-05-21 13:45:00,63.0,34.2,-100.00,North,-999,0.0,5.4,34,0.00,,,-99.99,FreeWX-Wi 1.01,2013-05-21 20:45:00,
2013-05-21 13:50:00,67.8,37.6,-100.00,North,-999,0.0,4.0,33,0.00,,,-99.99,FreeWX-Wi 1.01,2013-05-21 20:50:00,
2013-05-21 13:55:00,70.3,39.0,-100.00,North,-999,0.0,4.9,32,0.00,,,-99.99,FreeWX-Wi 1.01,2013-05-21 20:55:00,
2013-05-21 14:00:00,71.4,40.1,-100.00,North,-999,0.0,3.1,32,0.00,,,-99.99,FreeWX-Wi 1.01,2013-05-21 21:00:00,
2013-05-21 14:05:00,69.1,38.8,-100.00,South,172,1.0,3.1,33,0.00,,,-99.99,FreeWX-Wi 1.01,2013-05-21 21:05:00,
2013-05-21 14:10:00,70.3,39.0,-100.00,South,177,1.0,4.0,32,0.00,,,-99.99,FreeWX-Wi 1.01,2013-05-21 21:10:00,
2013-05-21 14:15:00,67.6,37.6,-100.00,SSE,168,1.0,3.6,33,0.00,,,-99.99,FreeWX-Wi 1.01,2013-05-21 21:15:00,
2013-05-21 14:20:00,64.2,35.2,-100.00,SSE,168,1.0,0.0,34,0.00,,,-99.99,FreeWX-Wi 1.01,2013-05-21 21:20:00,
2013-05-21 14:25:00,63.3,34.5,-100.00,SSE,160,1.0,2.2,34,0.00,,,-99.99,FreeWX-Wi 1.01,2013-05-21 21:25:00,
2013-05-21 14:30:00,63.7,34.7,-100.00,SSE,149,1.0,4.0,34,0.00,,,-99.99,FreeWX-Wi 1.01,2013-05-21 21:30:00,
2013-05-21 14:35:00,64.4,34.7,-100.00,SE,138,1.0,3.6,33,0.00,,,-99.99,FreeWX-Wi 1.01,2013-05-21 21:35:00,
2013-05-21 14:40:00,64.9,35.1,-100.00,North,-999,0.0,0.0,33,0.00,,,-99.99,FreeWX-Wi 1.01,2013-05-21 21:40:00,
2013-05-21 14:45:00,63.9,34.9,-100.00,North,-999,0.0,3.6,34,0.00,,,-99.99,FreeWX-Wi 1.01,2013-05-21 21:45:00,
2013-05-21 14:50:00,63.0,34.2,-100.00,North,-999,0.0,3.6,34,0.00,,,-99.99,FreeWX-Wi 1.01,2013-05-21 21:50:00,
2013-05-21 14:55:00,63.0,34.2,-100.00,North,-999,0.0,5.4,34,0.00,,,-99.99,FreeWX-Wi 1.01,2013-05-21 21:55:00,
2013-05-21 15:00:00,62.4,33.6,-100.00,North,-999,0.0,0.0,34,0.00,,,-99.99,FreeWX-Wi 1.01,2013-05-21 22:00:00,
2013-05-21 15:05:00,61.7,33.1,-100.00,North,-999,0.0,4.0,34,0.00,,,-99.99,FreeWX-Wi 1.01,2013-05-21 22:05:00,
2013-05-21 15:10:00,61.9,33.3,-100.00,North,-999,0.0,0.0,34,0.00,,,-99.99,FreeWX-Wi 1.01,2013-05-21 22:10:00,
2013-05-21 15:15:00,60.8,32.2,-100.00,North,-999,0.0,2.7,34,0.00,,,-99.99,FreeWX-Wi 1.01,2013-05-21 22:15:00,
2013-05-21 15:20:00,59.5,31.8,-100.00,North,-999,0.0,4.0,35,0.00,,,-99.99,FreeWX-Wi 1.01,2013-05-21 22:20:00,
2013-05-21 15:25:00,58.6,31.1,-100.00,North,-999,0.0,3.6,35,0.00,,,-99.99,FreeWX-Wi 1.01,2013-05-21 22:25:00,
2013-05-21 15:30:00,62.6,33.8,-100.00,SE,138,1.0,5.4,34,0.00,,,-99.99,FreeWX-Wi 1.01,2013-05-21 22:30:00,
2013-05-21 15:35:00,67.1,37.0,-100.00,SE,139,1.0,4.9,33,0.00,,,-99.99,FreeWX-Wi 1.01,2013-05-21 22:35:00,
2013-05-21 15:40:00,69.3,38.8,-100.00,SE,141,1.0,4.0,33,0.00,,,-99.99,FreeWX-Wi 1.01,2013-05-21 22:40:00,
2013-05-21 15:45:00,67.5,37.4,-100.00,SE,145,1.0,5.4,33,0.00,,,-99.99,FreeWX-Wi 1.01,2013-05-21 22:45:00,
2013-05-21 15:50:00,64.2,35.2,-100.00,SSE,155,1.0,4.0,34,0.00,,,-99.99,FreeWX-Wi 1.01,2013-05-21 22:50:00,
2013-05-21 15:55:00,63.0,34.2,-100.00,South,171,1.0,2.2,34,0.00,,,-99.99,FreeWX-Wi 1.01,2013-05-21 22:55:00,
2013-05-21 16:00:00,63.7,34.7,-100.00,South,187,1.0,0.0,34,0.00,,,-99.99,FreeWX-Wi 1.01,2013-05-21 23:00:00,
2013-05-21 16:05:00,61.7,33.1,-100.00,South,189,1.0,4.9,34,0.00,,,-99.99,FreeWX-Wi 1.01,2013-05-21 23:05:00,
2013-05-21 16:10:00,66.2,36.3,-100.00,South,189,1.0,2.2,33,0.00,,,-99.99,FreeWX-Wi 1.01,2013-05-21 23:10:00,
2013-05-21 16:15:00,68.2,37.9,-100.00,SSW,194,1.0,4.9,33,0.00,,,-99.99,FreeWX-Wi 1.01,2013-05-21 23:15:00,
2013-05-21 16:21:00,66.7,36.7,-100.00,SSW,197,1.0,4.0,33,0.00,,,-99.99,FreeWX-Wi 1.01,2013-05-21 23:21:00,
2013-05-21 16:26:00,67.5,37.4,-100.00,SSW,203,1.0,4.9,33,0.00,,,-99.99,FreeWX-Wi 1.01,2013-05-21 23:26:00,
2013-05-21 16:31:00,65.7,35.8,-100.00,SW,214,1.0,10.5,33,0.00,,,-99.99,FreeWX-Wi 1.01,2013-05-21 23:31:00,
2013-05-21 16:36:00,63.9,34.9,-100.00,SW,228,2.0,5.8,34,0.00,,,-99.99,FreeWX-Wi 1.01,2013-05-21 23:36:00,
2013-05-21 16:41:00,63.1,34.3,-100.00,SW,231,2.0,4.0,34,0.00,,,-99.99,FreeWX-Wi 1.01,2013-05-21 23:41:00,
2013-05-21 16:46:00,62.8,34.0,-100.00,SW,234,1.0,3.6,34,0.00,,,-99.99,FreeWX-Wi 1.01,2013-05-21 23:46:00,
2013-05-21 16:51:00,61.5,32.9,-100.00,SW,236,1.0,0.0,34,0.00,,,-99.99,FreeWX-Wi 1.01,2013-05-21 23:51:00,
2013-05-21 16:56:00,60.8,32.2,-100.00,WSW,247,2.0,5.4,34,0.00,,,-99.99,FreeWX-Wi 1.01,2013-05-21 23:56:00,
2013-05-21 17:01:00,60.4,32.7,-100.00,WSW,251,2.0,0.0,35,0.00,,,-99.99,FreeWX-Wi 1.01,2013-05-22 00:01:00,
2013-05-21 17:06:00,59.4,31.6,-100.00,WSW,252,2.0,2.2,35,0.00,,,-99.99,FreeWX-Wi 1.01,2013-05-22 00:06:00,
2013-05-21 17:11:00,59.0,31.5,-100.00,WSW,252,2.0,0.0,35,0.00,,,-99.99,FreeWX-Wi 1.01,2013-05-22 00:11:00,
2013-05-21 17:16:00,58.1,30.6,-100.00,WSW,254,2.0,0.0,35,0.00,,,-99.99,FreeWX-Wi 1.01,2013-05-22 00:16:00,
2013-05-21 17:21:00,57.7,30.2,-100.00,WSW,254,2.0,0.0,35,0.00,,,-99.99,FreeWX-Wi 1.01,2013-05-22 00:21:00,
2013-05-21 17:26:00,57.2,29.8,-100.00,WSW,254,2.0,0.0,35,0.00,,,-99.99,FreeWX-Wi 1.01,2013-05-22 00:26:00,
2013-05-21 17:31:00,57.0,29.7,-100.00,WSW,255,2.0,0.0,35,0.00,,,-99.99,FreeWX-Wi 1.01,2013-05-22 00:31:00,
2013-05-21 17:36:00,56.8,29.5,-100.00,WSW,250,1.0,0.0,35,0.00,,,-99.99,FreeWX-Wi 1.01,2013-05-22 00:36:00,
2013-05-21 17:41:00,57.6,30.2,-100.00,WSW,258,1.0,2.7,35,0.00,,,-99.99,FreeWX-Wi 1.01,2013-05-22 00:41:00,
2013-05-21 17:46:00,57.9,30.4,-100.00,WSW,258,1.0,3.1,35,0.00,,,-99.99,FreeWX-Wi 1.01,2013-05-22 00:46:00,
2013-05-21 17:51:00,58.1,30.6,-100.00,West,259,1.0,0.0,35,0.00,,,-99.99,FreeWX-Wi 1.01,2013-05-22 00:51:00,
2013-05-21 17:56:00,58.3,30.7,-100.00,West,259,1.0,0.0,35,0.00,,,-99.99,FreeWX-Wi 1.01,2013-05-22 00:56:00,
2013-05-21 18:01:00,57.7,30.2,-100.00,West,259,1.0,0.0,35,0.00,,,-99.99,FreeWX-Wi 1.01,2013-05-22 01:01:00,
2013-05-21 18:06:00,56.7,29.3,-100.00,West,259,1.0,0.0,35,0.00,,,-99.99,FreeWX-Wi 1.01,2013-05-22 01:06:00,
2013-05-21 18:12:00,54.9,28.4,-100.00,West,259,1.0,0.0,36,0.00,,,-99.99,FreeWX-Wi 1.01,2013-05-22 01:12:00,
2013-05-21 18:17:00,54.0,27.7,-100.00,West,259,1.0,0.0,36,0.00,,,-99.99,FreeWX-Wi 1.01,2013-05-22 01:17:00,
2013-05-21 18:22:00,53.2,27.7,-100.00,West,259,1.0,0.0,37,0.00,,,-99.99,FreeWX-Wi 1.01,2013-05-22 01:22:00,
2013-05-21 18:27:00,52.5,27.7,-100.00,West,259,1.0,0.0,38,0.00,,,-99.99,FreeWX-Wi 1.01,2013-05-22 01:27:00,
2013-05-21 18:32:00,52.2,28.0,-100.00,West,259,1.0,0.0,39,0.00,,,-99.99,FreeWX-Wi 1.01,2013-05-22 01:32:00,
2013-05-21 18:37:00,52.3,28.8,-100.00,West,259,1.0,0.0,40,0.00,,,-99.99,FreeWX-Wi 1.01,2013-05-22 01:37:00,
2013-05-21 18:42:00,52.5,28.9,-100.00,West,259,1.0,0.0,40,0.00,,,-99.99,FreeWX-Wi 1.01,2013-05-22 01:42:00,
2013-05-21 18:47:00,52.7,29.7,-100.00,West,259,1.0,0.0,41,0.00,,,-99.99,FreeWX-Wi 1.01,2013-05-22 01:47:00,
2013-05-21 18:52:00,53.2,31.3,-100.00,West,259,1.0,0.0,43,0.00,,,-99.99,FreeWX-Wi 1.01,2013-05-22 01:52:00,
2013-05-21 18:57:00,53.2,31.8,-100.00,West,259,1.0,0.0,44,0.00,,,-99.99,FreeWX-Wi 1.01,2013-05-22 01:57:00,
2013-05-21 19:02:00,53.2,32.5,-100.00,West,259,1.0,0.0,45,0.00,,,-99.99,FreeWX-Wi 1.01,2013-05-22 02:02:00,
2013-05-21 19:07:00,53.1,32.4,-100.00,West,259,1.0,0.0,45,0.00,,,-99.99,FreeWX-Wi 1.01,2013-05-22 02:07:00,
2013-05-21 19:12:00,52.9,32.7,-100.00,West,259,1.0,0.0,46,0.00,,,-99.99,FreeWX-Wi 1.01,2013-05-22 02:12:00,
2013-05-21 19:17:00,53.2,33.1,-100.00,West,259,1.0,0.0,46,0.00,,,-99.99,FreeWX-Wi 1.01,2013-05-22 02:17:00,
2013-05-21 19:22:00,53.6,33.3,-100.00,West,259,1.0,0.0,46,0.00,,,-99.99,FreeWX-Wi 1.01,2013-05-22 02:22:00,
2013-05-21 19:27:00,53.2,32.5,-100.00,West,259,1.0,0.0,45,0.00,,,-99.99,FreeWX-Wi 1.01,2013-05-22 02:27:00,
2013-05-21 19:32:00,53.2,33.1,-100.00,West,259,1.0,0.0,46,0.00,,,-99.99,FreeWX-Wi 1.01,2013-05-22 02:32:00,
2013-05-21 19:37:00,53.1,32.9,-100.00,West,259,1.0,0.0,46,0.00,,,-99.99,FreeWX-Wi 1.01,2013-05-22 02:37:00,
2013-05-21 19:42:00,52.7,32.0,-100.00,WSW,258,1.0,0.0,45,0.00,,,-99.99,FreeWX-Wi 1.01,2013-05-22 02:42:00,
2013-05-21 19:47:00,52.0,30.7,-100.00,WSW,258,1.0,0.0,44,0.00,,,-99.99,FreeWX-Wi 1.01,2013-05-22 02:47:00,
2013-05-21 19:52:00,51.4,30.2,-100.00,WSW,258,1.0,0.0,44,0.00,,,-99.99,FreeWX-Wi 1.01,2013-05-22 02:52:00,
2013-05-21 19:57:00,50.9,29.8,-100.00,WSW,258,1.0,0.0,44,0.00,,,-99.99,FreeWX-Wi 1.01,2013-05-22 02:57:00,
2013-05-21 20:02:00,50.2,28.6,-100.00,WSW,257,1.0,3.1,43,0.00,,,-99.99,FreeWX-Wi 1.01,2013-05-22 03:02:00,
2013-05-21 20:07:00,50.0,28.9,-100.00,WSW,255,1.0,2.2,44,0.00,,,-99.99,FreeWX-Wi 1.01,2013-05-22 03:07:00,
2013-05-21 20:12:00,49.5,29.5,-100.00,WSW,255,1.0,0.0,46,0.00,,,-99.99,FreeWX-Wi 1.01,2013-05-22 03:12:00,
2013-05-21 20:17:00,49.3,29.8,-100.00,WSW,253,1.0,0.0,47,0.00,,,-99.99,FreeWX-Wi 1.01,2013-05-22 03:17:00,
2013-05-21 20:22:00,49.3,29.8,-100.00,WSW,254,1.0,0.0,47,0.00,,,-99.99,FreeWX-Wi 1.01,2013-05-22 03:22:00,
2013-05-21 20:27:00,49.1,29.3,-100.00,WSW,254,1.0,0.0,46,0.00,,,-99.99,FreeWX-Wi 1.01,2013-05-22 03:27:00,
2013-05-21 20:32:00,48.9,27.5,-100.00,WSW,255,1.0,0.0,43,0.00,,,-99.99,FreeWX-Wi 1.01,2013-05-22 03:32:00,
2013-05-21 20:37:00,48.7,26.1,-100.00,WSW,255,1.0,0.0,41,0.00,,,-99.99,FreeWX-Wi 1.01,2013-05-22 03:37:00,
2013-05-21 20:42:00,48.4,26.4,-100.00,WSW,255,1.0,0.0,42,0.00,,,-99.99,FreeWX-Wi 1.01,2013-05-22 03:42:00,
2013-05-21 20:47:00,48.4,27.5,-100.00,WSW,255,1.0,0.0,44,0.00,,,-99.99,FreeWX-Wi 1.01,2013-05-22 03:47:00,
2013-05-21 20:52:00,48.6,27.1,-100.00,WSW,255,1.0,0.0,43,0.00,,,-99.99,FreeWX-Wi 1.01,2013-05-22 03:52:00,
2013-05-21 20:57:00,48.7,27.9,-100.00,WSW,255,1.0,0.0,44,0.00,,,-99.99,FreeWX-Wi 1.01,2013-05-22 03:57:00,
2013-05-21 21:03:00,48.7,27.9,-100.00,WSW,255,1.0,0.0,44,0.00,,,-99.99,FreeWX-Wi 1.01,2013-05-22 04:03:00,
2013-05-21 21:08:00,48.9,28.0,-100.00,WSW,255,1.0,0.0,44,0.00,,,-99.99,FreeWX-Wi 1.01,2013-05-22 04:08:00,
2013-05-21 21:13:00,48.9,26.2,-100.00,WSW,255,1.0,0.0,41,0.00,,,-99.99,FreeWX-Wi 1.01,2013-05-22 04:13:00,
2013-05-21 21:18:00,49.3,26.1,-100.00,WSW,255,1.0,0.0,40,0.00,,,-99.99,FreeWX-Wi 1.01,2013-05-22 04:18:00,
2013-05-21 21:23:00,49.3,26.1,-100.00,WSW,255,1.0,0.0,40,0.00,,,-99.99,FreeWX-Wi 1.01,2013-05-22 04:23:00,
2013-05-21 21:28:00,49.3,26.1,-100.00,WSW,255,1.0,0.0,40,0.00,,,-99.99,FreeWX-Wi 1.01,2013-05-22 04:28:00,
2013-05-21 21:33:00,49.3,25.3,-100.00,WSW,255,1.0,0.0,39,0.00,,,-99.99,FreeWX-Wi 1.01,2013-05-22 04:33:00,
2013-05-21 21:38:00,49.3,26.1,-100.00,WSW,255,1.0,0.0,40,0.00,,,-99.99,FreeWX-Wi 1.01,2013-05-22 04:38:00,
2013-05-21 21:43:00,49.3,25.3,-100.00,WSW,255,1.0,0.0,39,0.00,,,-99.99,FreeWX-Wi 1.01,2013-05-22 04:43:00,
2013-05-21 21:48:00,49.1,25.9,-100.00,WSW,253,1.0,0.0,40,0.00,,,-99.99,FreeWX-Wi 1.01,2013-05-22 04:48:00,
2013-05-21 21:53:00,48.9,25.7,-100.00,WSW,253,1.0,0.0,40,0.00,,,-99.99,FreeWX-Wi 1.01,2013-05-22 04:53:00,
2013-05-21 21:58:00,48.9,25.0,-100.00,WSW,253,1.0,0.0,39,0.00,,,-99.99,FreeWX-Wi 1.01,2013-05-22 04:58:00,
2013-05-21 22:03:00,49.1,25.9,-100.00,WSW,253,1.0,0.0,40,0.00,,,-99.99,FreeWX-Wi 1.01,2013-05-22 05:03:00,
2013-05-21 22:08:00,48.9,25.0,-100.00,WSW,253,1.0,0.0,39,0.00,,,-99.99,FreeWX-Wi 1.01,2013-05-22 05:08:00,
2013-05-21 22:13:00,48.9,25.7,-100.00,WSW,253,1.0,0.0,40,0.00,,,-99.99,FreeWX-Wi 1.01,2013-05-22 05:13:00,
2013-05-21 22:18:00,48.9,25.7,-100.00,WSW,251,1.0,4.0,40,0.00,,,-99.99,FreeWX-Wi 1.01,2013-05-22 05:18:00,
2013-05-21 22:23:00,48.7,25.5,-100.00,WSW,251,1.0,0.0,40,0.00,,,-99.99,FreeWX-Wi 1.01,2013-05-22 05:23:00,
2013-05-21 22:28:00,48.7,26.6,-100.00,WSW,251,1.0,0.0,42,0.00,,,-99.99,FreeWX-Wi 1.01,2013-05-22 05:28:00,
2013-05-21 22:33:00,48.7,26.1,-100.00,WSW,251,1.0,0.0,41,0.00,,,-99.99,FreeWX-Wi 1.01,2013-05-22 05:33:00,
2013-05-21 22:38:00,48.6,25.3,-100.00,WSW,251,1.0,0.0,40,0.00,,,-99.99,FreeWX-Wi 1.01,2013-05-22 05:38:00,
2013-05-21 22:43:00,48.2,25.7,-100.00,WSW,251,1.0,0.0,41,0.00,,,-99.99,FreeWX-Wi 1.01,2013-05-22 05:43:00,
2013-05-21 22:48:00,47.8,25.9,-100.00,WSW,251,1.0,0.0,42,0.00,,,-99.99,FreeWX-Wi 1.01,2013-05-22 05:48:00,
2013-05-21 22:53:00,47.8,26.4,-100.00,WSW,251,1.0,0.0,43,0.00,,,-99.99,FreeWX-Wi 1.01,2013-05-22 05:53:00,
2013-05-21 22:58:00,47.8,27.0,-100.00,WSW,251,1.0,0.0,44,0.00,,,-99.99,FreeWX-Wi 1.01,2013-05-22 05:58:00,
2013-05-21 23:03:00,47.7,27.3,-100.00,WSW,251,1.0,0.0,45,0.00,,,-99.99,FreeWX-Wi 1.01,2013-05-22 06:03:00,
2013-05-21 23:08:00,47.7,27.3,-100.00,WSW,251,1.0,0.0,45,0.00,,,-99.99,FreeWX-Wi 1.01,2013-05-22 06:08:00,
2013-05-21 23:13:00,47.5,27.1,-100.00,WSW,251,1.0,0.0,45,0.00,,,-99.99,FreeWX-Wi 1.01,2013-05-22 06:13:00,
2013-05-21 23:18:00,47.7,27.9,-100.00,WSW,251,1.0,0.0,46,0.00,,,-99.99,FreeWX-Wi 1.01,2013-05-22 06:18:00,
2013-05-21 23:23:00,47.3,26.4,-100.00,WSW,251,1.0,0.0,44,0.00,,,-99.99,FreeWX-Wi 1.01,2013-05-22 06:23:00,
2013-05-21 23:28:00,47.5,25.0,-100.00,WSW,251,1.0,0.0,41,0.00,,,-99.99,FreeWX-Wi 1.01,2013-05-22 06:28:00,
2013-05-21 23:33:00,47.5,25.0,-100.00,WSW,251,1.0,0.0,41,0.00,,,-99.99,FreeWX-Wi 1.01,2013-05-22 06:33:00,
2013-05-21 23:38:00,47.5,25.5,-100.00,WSW,251,1.0,0.0,42,0.00,,,-99.99,FreeWX-Wi 1.01,2013-05-22 06:38:00,
2013-05-21 23:43:00,47.3,25.3,-100.00,WSW,251,1.0,0.0,42,0.00,,,-99.99,FreeWX-Wi 1.01,2013-05-22 06:43:00,
2013-05-21 23:48:00,47.3,25.9,-100.00,WSW,251,1.0,0.0,43,0.00,,,-99.99,FreeWX-Wi 1.01,2013-05-22 06:48:00,
2013-05-21 23:54:00,47.1,25.7,-100.00,WSW,251,1.0,0.0,43,0.00,,,-99.99,FreeWX-Wi 1.01,2013-05-22 06:54:00,
2013-05-21 23:59:00,47.1,25.7,-100.00,WSW,251,1.0,0.0,43,0.00,,,-99.99,FreeWX-Wi 1.01,2013-05-22 06:59:00,